createdAt,value
2023-04-08T00:01:23.203Z,98826.73
2023-04-08T00:11:30.867Z,98828.20
2023-04-08T00:21:38.171Z,98833.78
2023-04-08T00:31:45.166Z,98832.31
2023-04-08T00:41:52.183Z,98834.56
2023-04-08T00:52:00.649Z,98843.25
2023-04-08T01:02:08.478Z,98853.90
2023-04-08T01:12:17.692Z,98863.52
2023-04-08T01:22:25.010Z,98871.81
2023-04-08T01:32:32.626Z,98866.11
2023-04-08T01:42:40.982Z,98865.83
2023-04-08T01:52:47.460Z,98871.23
2023-04-08T02:02:56.765Z,98875.48
2023-04-08T02:13:03.652Z,98873.23
2023-04-08T02:23:14.982Z,98879.86
2023-04-08T02:33:22.356Z,98872.98
2023-04-08T02:43:28.672Z,98874.45
2023-04-08T02:53:35.834Z,98883.67
2023-04-08T03:03:42.994Z,98893.80
2023-04-08T03:13:50.810Z,98907.06
2023-04-08T03:23:57.979Z,98907.25
2023-04-08T03:34:05.072Z,98909.61
2023-04-08T03:44:12.055Z,98916.27
2023-04-08T03:54:19.108Z,98921.61
2023-04-08T04:04:26.868Z,98930.58
2023-04-08T04:14:34.034Z,98937.56
2023-04-08T04:24:41.253Z,98940.91
2023-04-08T04:34:48.291Z,98954.48
2023-04-08T04:44:56.207Z,98966.44
2023-04-08T04:55:03.630Z,98978.52
2023-04-08T05:05:11.805Z,98991.54
2023-04-08T05:15:19.424Z,98995.64
2023-04-08T05:25:26.451Z,99006.12
2023-04-08T05:35:33.558Z,99019.54
2023-04-08T05:45:40.941Z,99029.38
2023-04-08T05:55:48.067Z,99034.10
2023-04-08T06:05:55.036Z,99042.77
2023-04-08T06:16:11.050Z,99056.05
2023-04-08T06:26:18.292Z,99067.09
2023-04-08T06:36:25.699Z,99074.91
2023-04-08T06:46:32.732Z,99085.25
2023-04-08T06:56:40.056Z,99087.48
2023-04-08T07:06:47.334Z,99093.84
2023-04-08T07:16:54.577Z,99094.31
2023-04-08T07:27:02.359Z,99102.52
2023-04-08T07:37:09.377Z,99108.63
2023-04-08T07:47:16.874Z,99120.48
2023-04-08T07:57:23.997Z,99133.41
2023-04-08T08:07:30.740Z,99137.15
2023-04-08T08:17:37.983Z,99143.20
2023-04-08T08:27:45.572Z,99157.20
2023-04-08T08:37:52.604Z,99152.96
2023-04-08T08:58:05.640Z,99158.10
2023-04-08T09:08:24.298Z,99168.25
2023-04-08T09:18:31.859Z,99171.00
2023-04-08T09:28:40.082Z,99184.98
2023-04-08T09:38:45.238Z,99197.05
2023-04-08T09:49:03.010Z,99197.95
2023-04-08T09:59:10.068Z,99195.60
2023-04-08T10:09:17.113Z,99194.14
2023-04-08T10:19:40.842Z,99188.53
2023-04-08T10:39:57.057Z,99191.30
2023-04-08T10:50:13.435Z,99188.80
2023-04-08T11:00:22.038Z,99185.59
2023-04-08T11:10:30.067Z,99180.70
2023-04-08T11:20:38.494Z,99186.52
2023-04-08T11:30:46.021Z,99189.59
2023-04-08T11:40:55.064Z,99196.52
2023-04-08T11:51:03.725Z,99195.22
2023-04-08T12:01:11.922Z,99198.75
2023-04-08T12:11:20.328Z,99195.46
2023-04-08T12:21:27.514Z,99188.35
2023-04-08T12:31:34.898Z,99190.50
2023-04-08T12:41:42.079Z,99187.21
2023-04-08T12:51:49.489Z,99184.02
2023-04-08T13:01:57.194Z,99183.94
2023-04-08T13:12:03.702Z,99181.84
2023-04-08T13:22:10.852Z,99181.07
2023-04-08T13:32:18.099Z,99174.45
2023-04-08T13:42:25.810Z,99167.50
2023-04-08T13:52:32.995Z,99170.48
2023-04-08T14:02:40.733Z,99168.66
2023-04-08T14:12:48.285Z,99164.60
2023-04-08T14:22:56.845Z,99161.42
2023-04-08T14:33:04.200Z,99156.73
2023-04-08T14:43:11.263Z,99161.80
2023-04-08T14:53:18.575Z,99160.42
2023-04-08T15:03:26.047Z,99160.70
2023-04-08T15:13:33.956Z,99155.94
2023-04-08T15:23:39.680Z,99168.67
2023-04-08T15:33:48.354Z,99188.73
2023-04-08T15:43:54.575Z,99185.70
2023-04-08T15:54:01.774Z,99186.83
2023-04-08T16:04:09.516Z,99196.08
2023-04-08T16:14:18.023Z,99199.60
2023-04-08T16:24:25.333Z,99208.09
2023-04-08T16:34:33.265Z,99213.07
2023-04-08T16:44:40.965Z,99211.02
2023-04-08T16:54:48.492Z,99210.95
2023-04-08T17:04:55.763Z,99215.21
2023-04-08T17:15:02.977Z,99215.90
2023-04-08T17:25:12.388Z,99222.11
2023-04-08T17:35:18.523Z,99232.00
2023-04-08T17:45:24.682Z,99233.61
2023-04-08T17:55:31.076Z,99242.78
2023-04-08T18:05:38.089Z,99247.10
2023-04-08T18:15:43.987Z,99249.45
2023-04-08T18:25:51.088Z,99273.50
2023-04-08T18:35:59.729Z,99268.89
2023-04-08T18:46:07.233Z,99273.69
2023-04-08T18:56:15.093Z,99280.84
2023-04-08T19:06:22.841Z,99281.33
2023-04-08T19:16:29.197Z,99278.44
2023-04-08T19:26:33.968Z,99272.16
2023-04-08T19:36:40.983Z,99275.50
2023-04-08T19:46:48.421Z,99271.91
2023-04-08T19:56:58.186Z,99272.69
2023-04-08T20:07:05.082Z,99270.98
2023-04-08T20:17:11.465Z,99268.13
2023-04-08T20:27:19.063Z,99268.71
2023-04-08T20:37:24.972Z,99262.19
2023-04-08T20:47:33.696Z,99261.47
2023-04-08T20:57:40.853Z,99262.38
2023-04-08T21:07:47.899Z,99265.02
2023-04-08T21:17:55.083Z,99262.50
2023-04-08T21:28:02.153Z,99266.34
2023-04-08T21:38:09.440Z,99270.73
2023-04-08T21:48:16.565Z,99274.35
2023-04-08T21:58:23.535Z,99276.58
2023-04-08T22:08:32.578Z,99272.58
2023-04-08T22:18:40.925Z,99269.54
2023-04-08T22:28:48.146Z,99273.16
2023-04-08T22:38:55.325Z,99274.95
2023-04-08T22:49:02.276Z,99280.91
2023-04-08T22:59:09.243Z,99282.58
2023-04-08T23:09:16.223Z,99280.17
2023-04-08T23:19:22.780Z,99281.29
2023-04-08T23:29:30.144Z,99270.46
2023-04-08T23:39:36.658Z,99282.45
2023-04-08T23:49:41.195Z,99278.77
2023-04-08T23:59:48.377Z,99284.46
